Time;durP1;ratioP1;P1;durP2;ratioP2;P2;SDS_P1;SDS_P2;PMS_P1;PMS_P2;Temp;Humidity;BMP_temperature;BMP_pressure;BME280_temperature;BME280_humidity;BME280_pressure;Samples;Min_cycle;Max_cycle;Signal;HPM_P1;HPM_P2
2021/12/28 00:01:04;;;;;;;9.00;7.88;;;8.00;86.40;;;;;;5012935;28;20038;-67
2021/12/28 00:03:30;;;;;;;8.50;7.10;;;8.00;86.50;;;;;;5008616;28;20420;-67
2021/12/28 00:05:56;;;;;;;9.38;6.47;;;8.00;86.50;;;;;;5008155;28;20033;-67
2021/12/28 00:08:22;;;;;;;8.40;6.70;;;8.00;86.60;;;;;;5006668;28;20030;-67
2021/12/28 00:10:48;;;;;;;8.23;6.95;;;8.00;86.60;;;;;;5005674;28;20038;-67
2021/12/28 00:13:15;;;;;;;9.90;7.03;;;7.90;86.60;;;;;;5005205;28;20030;-67
2021/12/28 00:18:13;;;;;;;8.10;6.50;;;7.90;86.60;;;;;;5006869;28;20034;-67
2021/12/28 00:20:42;;;;;;;10.00;6.88;;;7.90;86.70;;;;;;5004044;28;20140;-67
2021/12/28 00:23:13;;;;;;;8.57;6.63;;;7.90;86.70;;;;;;5008723;28;20075;-67
2021/12/28 00:25:39;;;;;;;7.65;5.95;;;7.90;86.90;;;;;;5008589;28;20030;-67
2021/12/28 00:28:05;;;;;;;8.40;6.00;;;7.90;86.90;;;;;;5007884;28;20037;-67
2021/12/28 00:30:31;;;;;;;8.20;5.95;;;7.90;86.90;;;;;;5012989;28;20681;-67
2021/12/28 00:32:57;;;;;;;9.07;6.05;;;7.80;86.80;;;;;;5007822;28;20033;-67
2021/12/28 00:35:25;;;;;;;8.40;6.30;;;7.80;87.50;;;;;;5006917;28;20049;-64
2021/12/28 00:37:51;;;;;;;7.57;5.90;;;7.80;86.60;;;;;;5008745;28;20125;-67
2021/12/28 00:40:18;;;;;;;6.60;5.53;;;7.80;86.60;;;;;;5006898;28;20042;-67
2021/12/28 00:42:44;;;;;;;8.40;5.85;;;7.80;86.60;;;;;;5006571;28;20038;-67
2021/12/28 00:45:10;;;;;;;8.20;5.82;;;7.90;86.60;;;;;;5007207;28;20563;-67
2021/12/28 00:47:35;;;;;;;8.52;6.07;;;7.80;86.40;;;;;;5007063;28;20102;-67
2021/12/28 00:50:02;;;;;;;10.40;6.07;;;7.80;86.50;;;;;;5007856;28;20034;-67
2021/12/28 00:52:27;;;;;;;9.82;5.97;;;7.80;86.50;;;;;;5006707;28;20030;-67
2021/12/28 00:54:53;;;;;;;7.70;6.03;;;7.80;86.50;;;;;;5007203;28;20045;-67
2021/12/28 00:57:19;;;;;;;9.05;5.68;;;7.80;86.60;;;;;;5006992;28;20377;-68
2021/12/28 00:59:44;;;;;;;8.85;6.05;;;7.70;87.30;;;;;;5005398;28;20531;-67
2021/12/28 01:02:10;;;;;;;9.35;5.97;;;7.70;86.40;;;;;;5002488;28;20536;-67
2021/12/28 01:04:36;;;;;;;10.80;6.07;;;7.70;86.40;;;;;;5007751;28;20072;-67
2021/12/28 01:07:02;;;;;;;8.68;6.13;;;7.70;86.30;;;;;;5006148;28;20076;-66
2021/12/28 01:09:30;;;;;;;7.78;6.00;;;7.70;86.30;;;;;;5006227;28;20113;-67
2021/12/28 01:12:03;;;;;;;7.28;5.75;;;7.70;86.20;;;;;;5002871;28;20033;-67
2021/12/28 01:14:29;;;;;;;6.82;5.10;;;7.70;86.10;;;;;;5006105;28;20073;-68
2021/12/28 01:16:56;;;;;;;10.20;4.72;;;7.70;86.10;;;;;;5006425;28;20112;-68
2021/12/28 01:19:21;;;;;;;6.50;4.30;;;7.70;86.20;;;;;;5001534;28;20030;-68
2021/12/28 01:21:47;;;;;;;6.07;4.35;;;7.70;86.20;;;;;;5007119;28;20412;-68
2021/12/28 01:24:13;;;;;;;9.50;4.25;;;7.60;86.20;;;;;;5005984;28;20172;-68
2021/12/28 01:26:39;;;;;;;6.47;4.05;;;7.60;86.40;;;;;;5006291;28;20032;-66
2021/12/28 01:29:04;;;;;;;5.80;3.90;;;7.70;86.40;;;;;;5006981;28;20113;-67
2021/12/28 01:31:30;;;;;;;6.13;4.03;;;7.60;86.30;;;;;;5006238;28;20500;-67
2021/12/28 01:33:57;;;;;;;6.05;3.80;;;7.60;86.40;;;;;;5004436;28;20041;-67
2021/12/28 01:36:22;;;;;;;7.00;3.88;;;7.60;86.40;;;;;;5004293;28;20037;-66
2021/12/28 01:38:48;;;;;;;7.13;4.07;;;7.70;86.60;;;;;;5005464;28;20413;-68
2021/12/28 01:41:14;;;;;;;5.55;3.45;;;7.70;86.60;;;;;;5004060;28;20524;-67
2021/12/28 01:43:41;;;;;;;6.07;3.30;;;7.70;86.40;;;;;;5005676;28;20125;-67
2021/12/28 01:46:07;;;;;;;5.30;3.78;;;7.70;86.40;;;;;;5007147;28;20041;-68
2021/12/28 01:48:36;;;;;;;5.55;3.25;;;7.70;86.30;;;;;;5006077;28;20497;-66
2021/12/28 01:51:06;;;;;;;5.78;3.80;;;7.70;86.20;;;;;;5004712;28;20038;-67
2021/12/28 01:53:32;;;;;;;6.43;3.50;;;7.70;86.20;;;;;;5004804;28;20077;-67
2021/12/28 01:56:00;;;;;;;7.10;3.88;;;7.60;86.20;;;;;;5006775;28;20061;-67
2021/12/28 01:58:26;;;;;;;5.57;3.92;;;7.70;86.20;;;;;;5004454;28;20034;-68
2021/12/28 02:00:54;;;;;;;6.10;4.20;;;7.70;86.00;;;;;;5006443;28;20370;-67
2021/12/28 02:03:22;;;;;;;5.43;3.80;;;7.60;86.00;;;;;;5005897;28;20120;-67
2021/12/28 02:05:48;;;;;;;5.47;4.10;;;7.60;85.90;;;;;;5003711;28;20041;-68
2021/12/28 02:08:14;;;;;;;5.85;4.13;;;7.60;85.90;;;;;;5005579;28;20038;-67
2021/12/28 02:10:42;;;;;;;6.55;3.88;;;7.60;86.00;;;;;;5003150;28;20505;-67
2021/12/28 02:13:07;;;;;;;6.65;3.80;;;7.60;86.00;;;;;;5004216;28;20046;-67
2021/12/28 02:15:35;;;;;;;7.28;3.72;;;7.60;86.40;;;;;;5004681;28;20398;-68
2021/12/28 02:18:01;;;;;;;5.80;4.05;;;7.60;86.20;;;;;;5001912;28;20102;-67
2021/12/28 02:20:27;;;;;;;7.03;4.07;;;7.60;86.10;;;;;;5004688;28;20038;-67
2021/12/28 02:22:52;;;;;;;6.32;3.67;;;7.60;86.00;;;;;;5005475;28;20144;-67
2021/12/28 02:25:19;;;;;;;7.57;3.92;;;7.60;86.10;;;;;;5006503;28;20056;-65
2021/12/28 02:27:45;;;;;;;5.28;3.70;;;7.60;85.90;;;;;;5005073;28;20037;-66
2021/12/28 02:30:14;;;;;;;5.72;3.78;;;7.60;85.80;;;;;;5005217;28;20121;-67
2021/12/28 02:32:41;;;;;;;5.35;3.42;;;7.60;85.60;;;;;;5003037;28;20030;-67
2021/12/28 02:35:10;;;;;;;5.78;3.33;;;7.60;85.50;;;;;;5004645;28;20021;-67
2021/12/28 02:37:36;;;;;;;5.97;3.63;;;7.60;85.30;;;;;;5005761;28;20041;-66
2021/12/28 02:40:04;;;;;;;5.05;3.80;;;7.60;85.10;;;;;;5005858;28;20026;-67
2021/12/28 02:42:29;;;;;;;4.55;3.60;;;7.60;84.80;;;;;;5004152;28;20038;-66
2021/12/28 02:45:10;;;;;;;4.18;3.30;;;7.50;84.50;;;;;;5006807;28;20029;-67
2021/12/28 02:47:37;;;;;;;5.85;2.88;;;7.50;84.50;;;;;;5005182;28;20034;-67
2021/12/28 02:50:09;;;;;;;5.80;3.38;;;7.50;84.50;;;;;;5003126;28;20037;-66
2021/12/28 02:52:36;;;;;;;4.65;3.65;;;7.40;84.30;;;;;;5004567;28;20033;-67
2021/12/28 02:55:05;;;;;;;5.53;3.80;;;7.40;84.30;;;;;;5004467;28;20041;-66
2021/12/28 02:57:30;;;;;;;5.95;3.80;;;7.40;84.30;;;;;;5004832;28;20038;-66
2021/12/28 02:59:56;;;;;;;5.32;3.90;;;7.40;84.30;;;;;;5005865;28;20041;-67
2021/12/28 03:02:22;;;;;;;5.82;3.90;;;7.30;84.30;;;;;;5004986;28;20030;-67
2021/12/28 03:04:47;;;;;;;7.15;3.97;;;7.20;84.30;;;;;;5003622;28;21702;-66
2021/12/28 03:07:13;;;;;;;6.03;4.10;;;7.20;84.30;;;;;;5003768;28;20030;-67
2021/12/28 03:09:39;;;;;;;8.30;4.35;;;7.20;84.40;;;;;;5004399;28;20026;-67
2021/12/28 03:12:06;;;;;;;5.78;4.05;;;7.10;84.50;;;;;;5002442;28;20041;-67
2021/12/28 03:14:32;;;;;;;7.00;3.88;;;7.10;84.50;;;;;;5004657;28;20026;-67
2021/12/28 03:16:58;;;;;;;4.57;3.75;;;7.00;84.60;;;;;;5003743;28;20057;-67
2021/12/28 03:19:24;;;;;;;5.60;4.20;;;7.00;84.80;;;;;;5002552;28;20501;-67
2021/12/28 03:21:50;;;;;;;6.35;3.95;;;7.00;85.00;;;;;;5002724;28;20052;-67
2021/12/28 03:24:17;;;;;;;5.22;3.97;;;7.00;85.10;;;;;;5002495;28;20037;-67
2021/12/28 03:26:43;;;;;;;4.38;3.70;;;7.00;84.90;;;;;;5003650;28;20129;-68
2021/12/28 03:29:09;;;;;;;5.18;3.95;;;6.90;84.80;;;;;;5005428;28;20116;-67
2021/12/28 03:31:35;;;;;;;4.68;3.60;;;7.00;84.70;;;;;;5004681;28;20125;-67
2021/12/28 03:34:01;;;;;;;4.07;3.67;;;7.00;84.60;;;;;;5005906;28;20624;-67
2021/12/28 03:36:29;;;;;;;4.20;3.70;;;6.90;84.60;;;;;;5006599;28;20129;-67
2021/12/28 03:38:57;;;;;;;4.10;3.70;;;6.90;84.60;;;;;;5024067;28;20037;-67
2021/12/28 03:41:31;;;;;;;4.78;3.72;;;6.90;84.60;;;;;;5007171;28;20083;-67
2021/12/28 03:43:57;;;;;;;7.13;4.07;;;6.90;84.40;;;;;;5009275;28;20413;-67
2021/12/28 03:46:25;;;;;;;5.28;3.80;;;6.90;85.20;;;;;;5008757;28;20125;-67
2021/12/28 03:48:51;;;;;;;6.57;4.10;;;6.90;84.30;;;;;;5007810;28;20552;-67
2021/12/28 03:51:17;;;;;;;5.00;4.32;;;6.90;84.40;;;;;;5007820;28;20045;-67
2021/12/28 03:53:47;;;;;;;4.47;3.88;;;6.90;84.30;;;;;;5008956;28;20030;-67
2021/12/28 03:56:14;;;;;;;5.03;4.15;;;6.80;84.10;;;;;;5008420;28;20044;-67
2021/12/28 03:58:41;;;;;;;5.18;3.95;;;6.80;84.10;;;;;;5007111;28;20040;-67
2021/12/28 04:01:09;;;;;;;5.20;4.35;;;6.80;84.20;;;;;;5008774;28;20034;-67
2021/12/28 04:03:34;;;;;;;5.15;4.55;;;6.80;84.10;;;;;;5008074;28;20030;-67
2021/12/28 04:06:07;;;;;;;4.70;4.20;;;6.70;84.10;;;;;;5014565;28;20030;-67
2021/12/28 04:08:34;;;;;;;6.28;4.53;;;6.70;84.20;;;;;;5007475;28;20033;-67
2021/12/28 04:11:15;;;;;;;7.00;5.18;;;6.70;84.30;;;;;;5004662;28;20042;-67
2021/12/28 04:13:42;;;;;;;7.82;5.43;;;6.70;84.40;;;;;;5006610;28;20468;-67
2021/12/28 04:16:08;;;;;;;9.27;5.70;;;6.60;84.40;;;;;;5000678;28;20500;-67
2021/12/28 04:18:34;;;;;;;7.28;5.00;;;6.60;84.40;;;;;;5005639;28;20052;-67
2021/12/28 04:21:00;;;;;;;6.15;5.10;;;6.60;84.60;;;;;;5006945;28;20049;-67
2021/12/28 04:23:26;;;;;;;5.80;4.20;;;6.60;84.80;;;;;;5006850;28;20531;-67
2021/12/28 04:25:52;;;;;;;5.93;4.25;;;6.60;84.90;;;;;;5008005;28;20030;-68
2021/12/28 04:28:17;;;;;;;5.55;4.32;;;6.60;85.10;;;;;;5006708;28;20448;-67
2021/12/28 04:30:43;;;;;;;6.22;4.75;;;6.60;85.10;;;;;;5007017;28;20057;-67
2021/12/28 04:33:09;;;;;;;4.80;4.30;;;6.60;85.10;;;;;;5008090;28;20034;-67
2021/12/28 04:35:34;;;;;;;5.95;4.40;;;6.60;85.20;;;;;;5007278;28;20080;-68
2021/12/28 04:38:00;;;;;;;8.43;4.55;;;6.60;85.20;;;;;;5008034;28;20049;-67
2021/12/28 04:40:27;;;;;;;5.78;4.53;;;6.60;85.30;;;;;;5007815;28;20037;-67
2021/12/28 04:42:53;;;;;;;5.97;4.60;;;6.60;86.00;;;;;;5007470;28;20320;-67
2021/12/28 04:45:18;;;;;;;7.50;4.50;;;6.70;85.30;;;;;;5006889;28;20117;-67
2021/12/28 04:47:44;;;;;;;6.55;4.38;;;6.70;85.20;;;;;;5004434;28;20117;-66
2021/12/28 04:50:12;;;;;;;6.45;4.43;;;6.70;85.20;;;;;;5006801;28;20475;-67
2021/12/28 04:52:39;;;;;;;5.53;4.30;;;6.70;85.30;;;;;;5006907;28;20030;-67
2021/12/28 04:55:10;;;;;;;6.35;4.80;;;6.70;85.30;;;;;;5007739;28;20041;-67
2021/12/28 04:57:36;;;;;;;6.53;4.43;;;6.70;85.20;;;;;;5007788;28;20481;-67
2021/12/28 05:00:05;;;;;;;5.25;4.00;;;6.70;85.20;;;;;;5007366;28;20081;-67
2021/12/28 05:02:30;;;;;;;5.32;3.80;;;6.70;85.20;;;;;;5006347;28;20630;-67
2021/12/28 05:04:56;;;;;;;5.03;3.95;;;6.70;85.30;;;;;;5006406;28;20030;-68
2021/12/28 05:07:22;;;;;;;4.88;4.38;;;6.80;85.40;;;;;;5005653;28;20030;-67
2021/12/28 05:09:49;;;;;;;6.68;4.60;;;6.70;85.30;;;;;;5007413;28;20080;-65
2021/12/28 05:12:14;;;;;;;26.33;12.43;;;6.70;85.30;;;;;;5002512;28;20109;-67
2021/12/28 05:14:42;;;;;;;17.00;8.40;;;6.80;85.30;;;;;;5007131;28;20121;-67
2021/12/28 05:17:08;;;;;;;16.33;8.60;;;6.80;85.30;;;;;;5005867;28;20030;-67
2021/12/28 05:19:34;;;;;;;17.02;8.30;;;6.80;85.20;;;;;;5005877;28;20026;-67
2021/12/28 05:22:01;;;;;;;13.60;6.78;;;6.70;85.00;;;;;;5006347;28;20096;-67
2021/12/28 05:24:26;;;;;;;12.40;6.40;;;6.70;85.00;;;;;;5006693;28;20038;-68
2021/12/28 05:26:52;;;;;;;12.45;6.72;;;6.70;85.20;;;;;;5005714;28;20522;-67
2021/12/28 05:29:18;;;;;;;14.20;7.43;;;6.70;85.30;;;;;;5006511;28;20194;-67
2021/12/28 05:31:44;;;;;;;11.20;6.70;;;6.60;85.40;;;;;;5007284;28;20578;-66
2021/12/28 05:34:10;;;;;;;10.30;5.82;;;6.60;85.60;;;;;;5020539;28;20153;-67
2021/12/28 05:36:36;;;;;;;9.95;6.28;;;6.50;85.80;;;;;;5005054;28;20084;-67
2021/12/28 05:39:02;;;;;;;11.95;6.38;;;6.60;86.00;;;;;;5005407;28;20030;-67
2021/12/28 05:41:28;;;;;;;11.82;5.45;;;6.60;86.00;;;;;;5006743;28;20041;-67
2021/12/28 05:43:54;;;;;;;11.35;6.30;;;6.60;86.10;;;;;;5005896;28;20030;-67
2021/12/28 05:46:20;;;;;;;14.88;9.30;;;6.60;86.20;;;;;;5005843;28;20042;-68
2021/12/28 05:48:47;;;;;;;8.15;4.50;;;6.60;86.40;;;;;;5003985;28;20073;-67
2021/12/28 05:51:13;;;;;;;5.43;3.90;;;6.60;86.50;;;;;;5006744;28;20623;-67
2021/12/28 05:53:39;;;;;;;4.00;2.72;;;6.60;86.50;;;;;;5007017;28;20584;-67
2021/12/28 05:56:05;;;;;;;3.00;2.50;;;6.60;86.60;;;;;;5005546;28;20274;-68
2021/12/28 05:58:31;;;;;;;3.13;2.40;;;6.70;86.70;;;;;;5004537;28;20515;-68
2021/12/28 06:00:57;;;;;;;3.83;2.20;;;6.70;86.80;;;;;;5005757;28;20447;-68
2021/12/28 06:03:22;;;;;;;3.60;2.45;;;6.80;86.90;;;;;;5005649;28;20065;-67
2021/12/28 06:05:48;;;;;;;3.28;2.80;;;6.80;87.10;;;;;;5005545;28;20041;-66
2021/12/28 06:08:14;;;;;;;7.15;4.05;;;6.80;87.10;;;;;;5005669;28;20037;-67
2021/12/28 06:10:40;;;;;;;2.45;1.88;;;6.80;87.10;;;;;;5005060;28;20140;-67
2021/12/28 06:13:06;;;;;;;2.00;1.40;;;6.90;87.20;;;;;;5002667;28;20046;-67
2021/12/28 06:15:32;;;;;;;2.20;2.00;;;6.90;87.30;;;;;;5006496;28;20117;-67
2021/12/28 06:17:57;;;;;;;3.78;2.20;;;6.90;87.40;;;;;;5003893;28;20045;-67
2021/12/28 06:20:23;;;;;;;4.22;2.03;;;6.90;87.40;;;;;;5004961;28;20040;-67
2021/12/28 06:22:49;;;;;;;2.13;1.50;;;7.00;87.40;;;;;;5006371;28;20069;-67
2021/12/28 06:25:14;;;;;;;3.47;1.70;;;7.00;87.40;;;;;;5006663;28;20084;-67
2021/12/28 06:27:41;;;;;;;1.90;1.60;;;7.10;87.40;;;;;;5006521;28;20042;-67
2021/12/28 06:30:07;;;;;;;3.50;1.80;;;7.10;87.30;;;;;;5004454;28;20046;-68
2021/12/28 06:32:33;;;;;;;2.58;1.70;;;7.10;87.30;;;;;;5005781;28;20129;-68
2021/12/28 06:34:58;;;;;;;2.55;1.60;;;7.10;87.30;;;;;;5004591;28;20150;-68
2021/12/28 06:37:24;;;;;;;1.35;1.23;;;7.10;87.30;;;;;;5004813;28;20117;-68
2021/12/28 06:39:50;;;;;;;3.03;1.27;;;7.20;87.30;;;;;;5005012;28;20042;-67
2021/12/28 06:42:15;;;;;;;1.80;1.58;;;7.20;87.40;;;;;;5003817;28;20041;-67
2021/12/28 06:44:44;;;;;;;2.45;1.65;;;7.20;87.40;;;;;;5005077;28;20034;-67
2021/12/28 06:47:09;;;;;;;1.40;1.30;;;7.20;87.40;;;;;;5003130;28;20038;-68
2021/12/28 06:49:35;;;;;;;1.92;1.50;;;7.20;87.40;;;;;;5005155;28;20081;-67
2021/12/28 06:52:00;;;;;;;2.67;1.35;;;7.30;88.30;;;;;;5004782;28;20621;-68
2021/12/28 06:54:26;;;;;;;3.42;1.42;;;7.30;87.40;;;;;;5004250;28;20034;-67
2021/12/28 06:56:51;;;;;;;1.65;1.15;;;7.30;87.40;;;;;;5005254;28;20045;-68
2021/12/28 06:59:17;;;;;;;2.58;1.40;;;7.30;87.40;;;;;;5004644;28;20049;-67
2021/12/28 07:01:43;;;;;;;3.17;1.48;;;7.40;87.40;;;;;;5004475;28;20018;-68
2021/12/28 07:04:08;;;;;;;2.80;1.50;;;7.30;87.30;;;;;;5003853;28;20559;-67
2021/12/28 07:06:34;;;;;;;3.20;1.50;;;7.30;87.30;;;;;;5004479;28;20030;-68
2021/12/28 07:09:00;;;;;;;4.60;1.35;;;7.30;87.30;;;;;;5005294;28;20076;-66
2021/12/28 07:11:25;;;;;;;3.30;1.50;;;7.30;87.40;;;;;;5004577;28;20534;-67
2021/12/28 07:13:51;;;;;;;1.92;1.30;;;7.30;87.50;;;;;;5008478;28;20421;-67
2021/12/28 07:16:19;;;;;;;3.67;1.48;;;7.30;87.50;;;;;;5005417;28;20033;-68
2021/12/28 07:18:44;;;;;;;4.93;2.17;;;7.30;88.50;;;;;;5007725;28;20041;-68
2021/12/28 07:21:10;;;;;;;3.20;1.50;;;7.30;87.60;;;;;;5007618;28;20072;-67
2021/12/28 07:23:36;;;;;;;2.78;1.48;;;7.30;87.60;;;;;;5007572;28;20471;-67
2021/12/28 07:26:01;;;;;;;2.15;1.55;;;7.40;87.70;;;;;;5009088;28;20042;-67
2021/12/28 07:28:27;;;;;;;2.17;1.60;;;7.40;87.80;;;;;;5008413;28;20654;-67
2021/12/28 07:30:53;;;;;;;2.78;1.80;;;7.30;87.80;;;;;;5007733;28;20509;-67
2021/12/28 07:33:19;;;;;;;3.33;1.90;;;7.40;87.90;;;;;;5007100;28;20034;-68
2021/12/28 07:35:44;;;;;;;2.58;1.25;;;7.30;87.90;;;;;;5009337;28;20100;-66
2021/12/28 07:38:10;;;;;;;2.72;1.63;;;7.40;88.00;;;;;;5007699;28;20038;-67
2021/12/28 07:40:36;;;;;;;3.72;1.63;;;7.40;88.00;;;;;;5008619;28;20042;-66
2021/12/28 07:43:02;;;;;;;2.45;1.50;;;7.40;88.00;;;;;;5009524;28;20038;-67
2021/12/28 07:45:28;;;;;;;3.22;1.70;;;7.40;88.00;;;;;;5007353;28;20114;-67
2021/12/28 07:47:53;;;;;;;4.88;2.00;;;7.40;88.10;;;;;;5008369;28;20132;-68
2021/12/28 07:50:20;;;;;;;3.10;1.70;;;7.40;88.20;;;;;;5003147;28;20154;-67
2021/12/28 07:52:47;;;;;;;1.33;1.17;;;7.40;88.20;;;;;;5008242;28;20519;-67
2021/12/28 07:55:13;;;;;;;2.42;1.58;;;7.40;88.20;;;;;;5005731;28;20068;-67
2021/12/28 07:57:39;;;;;;;2.60;1.40;;;7.50;88.30;;;;;;5008358;28;20037;-67
2021/12/28 08:00:08;;;;;;;3.65;2.17;;;7.50;88.30;;;;;;5007829;28;20034;-66
2021/12/28 08:02:34;;;;;;;1.40;1.20;;;7.50;88.30;;;;;;5005151;28;20042;-67
2021/12/28 08:05:00;;;;;;;1.70;1.15;;;7.50;88.30;;;;;;5007609;28;20408;-67
2021/12/28 08:07:25;;;;;;;2.53;1.60;;;7.50;88.30;;;;;;4994221;28;20037;-68
2021/12/28 08:09:51;;;;;;;2.80;1.60;;;7.50;88.40;;;;;;4997287;28;20851;-67
2021/12/28 08:12:17;;;;;;;3.50;1.77;;;7.60;88.40;;;;;;4997129;28;20042;-67
2021/12/28 08:14:42;;;;;;;1.67;1.58;;;7.60;88.50;;;;;;5001750;28;20827;-67
2021/12/28 08:17:08;;;;;;;3.10;1.70;;;7.60;88.50;;;;;;5002203;28;20084;-67
2021/12/28 08:19:34;;;;;;;2.40;1.50;;;7.60;88.40;;;;;;5001860;28;20501;-68
2021/12/28 08:22:00;;;;;;;2.00;1.50;;;7.60;88.30;;;;;;4999335;28;20451;-66
2021/12/28 08:24:26;;;;;;;5.10;1.55;;;7.70;88.50;;;;;;5000786;28;20040;-67
2021/12/28 08:26:51;;;;;;;3.28;1.85;;;7.70;88.40;;;;;;5001724;28;20056;-65
2021/12/28 08:29:17;;;;;;;2.83;1.60;;;7.70;88.50;;;;;;5002552;28;20045;-68
2021/12/28 08:31:43;;;;;;;2.88;1.55;;;7.70;88.30;;;;;;5003585;28;20133;-68
2021/12/28 08:34:08;;;;;;;3.42;2.20;;;7.80;88.40;;;;;;5009078;28;20061;-67
2021/12/28 08:36:34;;;;;;;4.30;2.58;;;7.70;88.50;;;;;;5003409;28;20037;-67
2021/12/28 08:39:00;;;;;;;3.65;2.50;;;7.80;88.40;;;;;;5001275;28;20038;-68
2021/12/28 08:41:25;;;;;;;3.15;2.30;;;7.80;88.50;;;;;;5002258;28;20193;-67
2021/12/28 08:43:51;;;;;;;2.70;1.88;;;7.80;88.50;;;;;;5002012;28;20034;-66
2021/12/28 08:46:17;;;;;;;2.33;1.65;;;7.80;88.50;;;;;;5002505;28;20034;-67
2021/12/28 08:48:43;;;;;;;1.75;1.65;;;7.80;88.40;;;;;;4997007;28;20030;-67
2021/12/28 08:51:09;;;;;;;1.73;1.50;;;7.80;88.40;;;;;;5003566;28;20037;-67
2021/12/28 08:53:35;;;;;;;1.95;1.77;;;7.90;88.60;;;;;;5000550;28;20105;-67
2021/12/28 08:56:00;;;;;;;2.08;1.88;;;7.90;88.60;;;;;;5002895;28;20057;-67
2021/12/28 08:58:26;;;;;;;2.08;1.80;;;7.90;88.70;;;;;;4998020;28;20065;-67
2021/12/28 09:00:52;;;;;;;2.95;2.05;;;7.90;88.60;;;;;;5002309;28;20033;-67
2021/12/28 09:03:17;;;;;;;3.28;1.60;;;7.90;88.70;;;;;;4995425;28;20041;-67
2021/12/28 09:05:43;;;;;;;1.92;1.70;;;7.90;88.70;;;;;;5000371;28;20413;-67
2021/12/28 09:08:13;;;;;;;3.33;3.03;;;7.90;88.50;;;;;;5003090;28;20041;-67
2021/12/28 09:10:39;;;;;;;3.00;2.20;;;8.00;88.60;;;;;;4999588;28;20040;-67
2021/12/28 09:13:07;;;;;;;2.30;1.80;;;8.00;88.60;;;;;;5003026;28;20484;-67
2021/12/28 09:15:35;;;;;;;2.70;1.83;;;8.00;88.50;;;;;;5002042;28;20042;-67
2021/12/28 09:18:00;;;;;;;1.65;1.40;;;8.00;88.50;;;;;;5001130;28;20524;-67
2021/12/28 09:20:26;;;;;;;3.10;1.58;;;8.00;88.40;;;;;;4998276;28;20099;-67
2021/12/28 09:22:53;;;;;;;2.15;1.95;;;8.00;88.50;;;;;;5003024;28;20042;-67
2021/12/28 09:25:19;;;;;;;2.10;1.90;;;8.00;88.50;;;;;;5003134;28;20037;-67
2021/12/28 09:27:46;;;;;;;2.50;2.13;;;8.00;88.50;;;;;;5004171;28;20092;-67
2021/12/28 09:30:13;;;;;;;2.45;2.08;;;8.10;88.60;;;;;;4997338;28;20097;-66
2021/12/28 09:32:39;;;;;;;2.28;1.90;;;8.00;88.60;;;;;;5002284;28;20501;-67
2021/12/28 09:35:06;;;;;;;2.88;1.80;;;8.10;88.70;;;;;;5002641;28;20139;-66
2021/12/28 09:37:33;;;;;;;3.25;1.70;;;8.10;88.80;;;;;;4996614;28;20030;-67
2021/12/28 09:39:59;;;;;;;5.10;1.80;;;8.20;88.80;;;;;;5003269;28;20030;-66
2021/12/28 09:42:26;;;;;;;3.40;1.50;;;8.20;88.80;;;;;;5003638;28;20060;-66
2021/12/28 09:44:52;;;;;;;2.13;1.63;;;8.20;88.70;;;;;;5000391;28;20080;-68
2021/12/28 09:47:19;;;;;;;2.42;1.30;;;8.30;88.70;;;;;;4999318;28;20030;-67
2021/12/28 09:49:46;;;;;;;2.00;1.58;;;8.30;88.70;;;;;;4999186;28;20038;-67
2021/12/28 09:52:13;;;;;;;2.45;1.92;;;8.40;88.70;;;;;;5003309;28;20026;-66
2021/12/28 09:54:39;;;;;;;2.40;2.10;;;8.40;88.60;;;;;;5001727;28;20160;-68
2021/12/28 09:57:05;;;;;;;1.92;1.35;;;8.40;88.60;;;;;;5004813;28;20026;-67
2021/12/28 09:59:32;;;;;;;3.58;2.80;;;8.50;88.60;;;;;;5003786;28;20472;-66
2021/12/28 10:01:59;;;;;;;1.23;1.13;;;8.50;88.60;;;;;;5001792;28;20113;-66
2021/12/28 10:04:26;;;;;;;1.77;1.45;;;8.50;88.60;;;;;;5002943;28;20034;-68
2021/12/28 10:06:54;;;;;;;1.17;1.08;;;8.50;88.60;;;;;;4996957;28;20572;-67
2021/12/28 10:09:21;;;;;;;3.22;1.42;;;8.60;88.60;;;;;;5001643;28;20536;-67
2021/12/28 10:11:48;;;;;;;2.40;1.58;;;8.60;88.70;;;;;;4999515;28;20038;-68
2021/12/28 10:14:29;;;;;;;1.90;1.40;;;8.70;89.00;;;;;;5004504;28;20054;-68
2021/12/28 10:17:04;;;;;;;1.95;1.70;;;8.80;89.30;;;;;;5003257;28;20473;-68
2021/12/28 10:19:37;;;;;;;1.02;0.82;;;8.80;89.50;;;;;;5002815;28;20058;-67
2021/12/28 10:22:23;;;;;;;1.20;0.77;;;8.90;89.70;;;;;;5005514;28;20092;-67
2021/12/28 10:24:51;;;;;;;0.95;0.77;;;9.00;90.00;;;;;;5002647;28;20095;-66
2021/12/28 10:27:20;;;;;;;0.93;0.93;;;9.00;90.00;;;;;;5005855;28;20465;-67
2021/12/28 10:29:45;;;;;;;0.82;0.60;;;9.20;90.00;;;;;;5003492;28;20042;-67
2021/12/28 10:32:23;;;;;;;0.73;0.73;;;9.20;90.00;;;;;;5004715;28;20092;-67
2021/12/28 10:34:53;;;;;;;1.10;0.80;;;9.40;89.90;;;;;;5004711;28;20041;-67
2021/12/28 10:37:22;;;;;;;0.50;0.50;;;9.50;89.50;;;;;;5004214;28;20038;-67
2021/12/28 10:39:54;;;;;;;0.80;0.80;;;9.60;89.20;;;;;;5005316;28;20122;-67
2021/12/28 10:42:40;;;;;;;3.55;0.70;;;9.60;88.90;;;;;;5003349;28;20528;-67
2021/12/28 10:45:08;;;;;;;1.13;1.00;;;9.70;88.70;;;;;;5001907;28;20038;-67
2021/12/28 10:47:33;;;;;;;2.45;0.65;;;9.70;88.60;;;;;;5004480;28;20253;-68
2021/12/28 10:50:07;;;;;;;1.10;0.60;;;9.80;88.60;;;;;;5003278;28;20034;-67
2021/12/28 10:52:38;;;;;;;0.90;0.60;;;9.90;88.60;;;;;;5002998;28;20030;-67
2021/12/28 10:55:24;;;;;;;0.90;0.55;;;9.90;88.50;;;;;;5004807;28;20037;-67
2021/12/28 10:57:50;;;;;;;1.17;0.40;;;10.00;88.40;;;;;;5004217;28;20061;-67
2021/12/28 11:00:28;;;;;;;0.52;0.40;;;10.00;88.30;;;;;;4998995;28;20114;-67
2021/12/28 11:03:13;;;;;;;0.98;0.70;;;10.10;88.50;;;;;;5003534;28;20037;-67
2021/12/28 11:05:39;;;;;;;1.15;0.63;;;10.10;88.00;;;;;;5001041;28;20034;-66
2021/12/28 11:08:09;;;;;;;0.70;0.50;;;10.20;88.10;;;;;;4996009;28;20046;-65
2021/12/28 11:10:41;;;;;;;7.53;0.60;;;10.20;88.00;;;;;;4995625;28;20040;-67
2021/12/28 11:13:07;;;;;;;0.40;0.40;;;10.30;88.00;;;;;;4996045;28;20044;-65
2021/12/28 11:15:37;;;;;;;0.60;0.40;;;10.30;88.10;;;;;;4994849;28;20137;-67
2021/12/28 11:18:30;;;;;;;0.52;0.50;;;10.30;88.10;;;;;;4999547;28;20030;-67
2021/12/28 11:20:58;;;;;;;0.50;0.40;;;10.40;87.60;;;;;;4992138;28;20049;-67
2021/12/28 11:23:27;;;;;;;2.13;0.75;;;10.50;87.60;;;;;;4998476;28;20061;-68
2021/12/28 11:26:08;;;;;;;1.52;0.50;;;10.50;87.40;;;;;;5004157;28;20034;-67
2021/12/28 11:28:34;;;;;;;1.00;0.65;;;10.50;87.10;;;;;;4996037;28;20207;-67
2021/12/28 11:31:19;;;;;;;0.90;0.70;;;10.50;87.30;;;;;;5006156;28;20057;-67
2021/12/28 11:34:11;;;;;;;0.57;0.50;;;10.60;87.20;;;;;;5005865;28;20457;-66
2021/12/28 11:36:45;;;;;;;1.23;0.70;;;10.60;87.00;;;;;;4996496;28;20044;-65
2021/12/28 11:39:15;;;;;;;0.70;0.50;;;10.60;86.70;;;;;;5002259;28;20030;-68
2021/12/28 11:41:41;;;;;;;0.47;0.47;;;10.70;86.80;;;;;;5003646;28;20026;-67
2021/12/28 11:44:08;;;;;;;0.50;0.45;;;10.70;86.80;;;;;;4999062;28;20121;-66
2021/12/28 11:46:34;;;;;;;0.60;0.43;;;10.60;86.70;;;;;;5005088;28;20041;-67
2021/12/28 11:48:59;;;;;;;0.30;0.30;;;10.70;86.70;;;;;;5005147;28;20034;-67
2021/12/28 11:51:25;;;;;;;0.88;0.60;;;10.70;86.70;;;;;;4997778;28;20117;-67
2021/12/28 11:53:53;;;;;;;1.23;0.60;;;10.70;86.70;;;;;;5000464;28;20034;-67
2021/12/28 11:56:26;;;;;;;2.15;1.38;;;10.70;86.70;;;;;;5000680;28;20569;-67
2021/12/28 11:59:00;;;;;;;0.73;0.70;;;10.70;86.80;;;;;;5000787;28;20065;-67
2021/12/28 12:01:52;;;;;;;2.87;1.13;;;10.70;86.80;;;;;;5001838;28;20033;-66
2021/12/28 12:04:27;;;;;;;1.17;0.60;;;10.80;86.70;;;;;;4999919;28;20031;-66
2021/12/28 12:07:13;;;;;;;;;;;10.80;86.50;;;;;;4998320;28;20038;-67
2021/12/28 12:09:51;;;;;;;0.60;0.55;;;10.80;86.60;;;;;;4991170;28;20000;-67
2021/12/28 12:12:18;;;;;;;0.43;0.30;;;10.80;86.40;;;;;;4996834;28;20040;-66
2021/12/28 12:14:50;;;;;;;0.43;0.30;;;10.90;86.60;;;;;;5000143;28;20042;-67
2021/12/28 12:17:30;;;;;;;0.45;0.45;;;10.90;86.50;;;;;;4997915;28;20280;-67
2021/12/28 12:19:57;;;;;;;0.55;0.50;;;10.90;86.40;;;;;;5000824;28;20055;-67
2021/12/28 12:22:32;;;;;;;0.70;0.50;;;10.90;86.40;;;;;;4995821;28;20041;-67
2021/12/28 12:25:00;;;;;;;0.50;0.30;;;10.90;86.30;;;;;;5003529;28;20041;-67
2021/12/28 12:27:51;;;;;;;0.20;0.20;;;10.90;86.30;;;;;;4998381;28;20030;-66
2021/12/28 12:30:17;;;;;;;0.25;0.25;;;10.90;86.00;;;;;;4997472;28;20030;-66
2021/12/28 12:33:01;;;;;;;0.20;0.20;;;10.90;86.10;;;;;;5002291;28;20030;-66
2021/12/28 12:35:32;;;;;;;0.10;0.10;;;10.90;85.90;;;;;;5005893;28;20046;-66
2021/12/28 12:38:19;;;;;;;0.25;0.20;;;11.00;86.00;;;;;;4997403;28;20057;-68
2021/12/28 12:41:00;;;;;;;0.68;0.40;;;11.00;86.20;;;;;;4996351;28;20131;-67
2021/12/28 12:43:40;;;;;;;0.52;0.40;;;11.00;86.00;;;;;;5005222;28;20195;-68
2021/12/28 12:46:25;;;;;;;0.60;0.47;;;11.00;86.10;;;;;;5006805;28;20101;-68
2021/12/28 12:48:53;;;;;;;0.43;0.30;;;11.00;86.10;;;;;;5006414;28;20026;-67
2021/12/28 12:51:19;;;;;;;0.30;0.20;;;11.00;86.00;;;;;;5005722;28;20284;-67
2021/12/28 12:53:59;;;;;;;0.20;0.20;;;11.00;86.00;;;;;;5007000;28;20037;-67
2021/12/28 12:56:26;;;;;;;0.20;0.20;;;11.00;86.00;;;;;;5006607;28;20030;-68
2021/12/28 12:58:54;;;;;;;0.30;0.20;;;11.00;86.00;;;;;;5005037;28;20054;-67
2021/12/28 13:01:26;;;;;;;1.20;0.30;;;11.10;86.10;;;;;;5004385;28;20034;-68